createdAt,value
2023-04-02T00:02:49.313Z,6.65
2023-04-02T00:05:51.020Z,6.40
2023-04-02T00:08:28.178Z,7.05
2023-04-02T00:11:00.395Z,7.07
2023-04-02T00:13:36.880Z,6.18
2023-04-02T00:16:07.589Z,5.35
2023-04-02T00:18:48.386Z,5.57
2023-04-02T00:21:22.941Z,6.43
2023-04-02T00:23:51.945Z,6.72
2023-04-02T00:26:25.595Z,7.07
2023-04-02T00:28:54.135Z,6.57
2023-04-02T00:31:22.737Z,8.13
2023-04-02T00:33:54.099Z,5.78
2023-04-02T00:36:23.526Z,6.80
2023-04-02T00:38:52.254Z,6.80
2023-04-02T00:41:27.133Z,4.55
2023-04-02T00:44:01.049Z,6.53
2023-04-02T00:46:37.663Z,5.88
2023-04-02T00:49:10.672Z,4.72
2023-04-02T00:51:45.309Z,5.72
2023-04-02T00:54:16.425Z,4.75
2023-04-02T00:56:48.625Z,4.20
2023-04-02T01:01:54.112Z,5.18
2023-04-02T01:04:34.425Z,4.57
2023-04-02T01:07:09.066Z,4.10
2023-04-02T01:09:57.975Z,5.00
2023-04-02T01:12:39.471Z,5.10
2023-04-02T01:15:13.182Z,6.23
2023-04-02T01:17:54.574Z,5.25
2023-04-02T01:20:54.982Z,5.20
2023-04-02T01:23:27.779Z,4.38
2023-04-02T01:26:04.202Z,5.72
2023-04-02T01:28:55.451Z,4.53
2023-04-02T01:31:24.043Z,4.00
2023-04-02T01:33:52.531Z,3.95
2023-04-02T01:36:27.965Z,3.03
2023-04-02T01:39:03.915Z,4.88
2023-04-02T01:41:36.219Z,5.05
2023-04-02T01:44:12.106Z,5.73
2023-04-02T01:46:43.717Z,4.82
2023-04-02T01:49:17.746Z,5.82
2023-04-02T01:51:53.078Z,3.38
2023-04-02T01:54:23.541Z,4.25
2023-04-02T01:56:53.690Z,4.68
2023-04-02T01:59:24.271Z,5.93
2023-04-02T02:01:56.516Z,4.28
2023-04-02T02:04:43.619Z,5.25
2023-04-02T02:07:16.286Z,4.75
2023-04-02T02:09:46.233Z,5.22
2023-04-02T02:12:17.442Z,5.28
2023-04-02T02:14:51.620Z,3.58
2023-04-02T02:17:24.505Z,3.08
2023-04-02T02:19:55.109Z,4.70
2023-04-02T02:22:36.452Z,4.03
2023-04-02T02:25:07.413Z,3.92
2023-04-02T02:27:49.591Z,3.47
2023-04-02T02:30:24.750Z,4.18
2023-04-02T02:32:58.806Z,4.20
2023-04-02T02:35:30.861Z,3.80
2023-04-02T02:38:07.480Z,3.25
2023-04-02T02:40:40.861Z,4.53
2023-04-02T02:43:12.033Z,4.57
2023-04-02T02:45:42.656Z,4.10
2023-04-02T02:48:13.924Z,4.38
2023-04-02T02:50:43.110Z,3.83
2023-04-02T02:53:18.323Z,4.20
2023-04-02T02:55:47.447Z,4.63
2023-04-02T02:58:19.480Z,3.80
2023-04-02T03:00:49.385Z,2.80
2023-04-02T03:03:22.343Z,4.13
2023-04-02T03:05:53.135Z,3.92
2023-04-02T03:08:28.353Z,3.90
2023-04-02T03:11:02.322Z,3.97
2023-04-02T03:13:35.555Z,4.60
2023-04-02T03:16:12.431Z,3.72
2023-04-02T03:18:45.285Z,4.13
2023-04-02T03:21:25.095Z,4.60
2023-04-02T03:24:00.410Z,4.70
2023-04-02T03:26:35.096Z,3.72
2023-04-02T03:29:08.488Z,4.45
2023-04-02T03:31:39.571Z,3.88
2023-04-02T03:34:12.864Z,4.07
2023-04-02T03:36:46.683Z,3.30
2023-04-02T03:39:21.167Z,3.08
2023-04-02T03:41:53.121Z,3.30
2023-04-02T03:44:25.678Z,2.78
2023-04-02T03:46:58.209Z,3.33
2023-04-02T03:49:32.390Z,3.17
2023-04-02T03:52:03.045Z,3.58
2023-04-02T03:54:31.914Z,3.10
2023-04-02T03:57:00.723Z,3.88
2023-04-02T03:59:35.864Z,4.15
2023-04-02T04:02:14.026Z,3.60
2023-04-02T04:04:45.041Z,3.33
2023-04-02T04:07:21.117Z,3.92
2023-04-02T04:09:52.980Z,3.85
2023-04-02T04:12:28.212Z,3.65
2023-04-02T04:15:00.341Z,3.40
2023-04-02T04:17:34.783Z,2.90
2023-04-02T04:20:08.376Z,3.88
2023-04-02T04:22:36.629Z,3.35
2023-04-02T04:25:08.356Z,3.80
2023-04-02T04:27:44.833Z,3.50
2023-04-02T04:30:18.577Z,3.53
2023-04-02T04:32:52.471Z,3.00
2023-04-02T04:35:25.847Z,3.50
2023-04-02T04:37:59.885Z,3.53
2023-04-02T04:40:30.960Z,2.65
2023-04-02T04:43:03.275Z,3.10
2023-04-02T04:45:41.849Z,3.25
2023-04-02T04:48:17.911Z,2.83
2023-04-02T04:50:50.639Z,3.63
2023-04-02T04:53:23.348Z,3.30
2023-04-02T04:55:56.125Z,3.25
2023-04-02T04:58:28.507Z,3.63
2023-04-02T05:01:03.478Z,3.55
2023-04-02T05:03:39.626Z,3.60
2023-04-02T05:06:12.271Z,3.20
2023-04-02T05:08:44.564Z,3.45
2023-04-02T05:11:16.468Z,4.15
2023-04-02T05:13:50.534Z,3.55
2023-04-02T05:16:24.506Z,3.22
2023-04-02T05:19:02.836Z,3.92
2023-04-02T05:21:39.432Z,3.63
2023-04-02T05:24:33.101Z,3.70
2023-04-02T05:27:03.813Z,3.25
2023-04-02T05:29:36.763Z,3.95
2023-04-02T05:32:09.709Z,4.32
2023-04-02T05:34:41.828Z,4.53
2023-04-02T05:37:19.681Z,3.83
2023-04-02T05:39:53.873Z,4.20
2023-04-02T05:42:26.689Z,5.68
2023-04-02T05:45:04.614Z,4.20
2023-04-02T05:47:41.153Z,4.30
2023-04-02T05:50:37.053Z,3.92
2023-04-02T05:53:11.412Z,3.75
2023-04-02T05:55:45.874Z,3.38
2023-04-02T05:58:36.271Z,3.00
2023-04-02T06:01:29.355Z,2.60
2023-04-02T06:04:02.122Z,2.38
2023-04-02T06:06:49.185Z,2.38
2023-04-02T06:09:23.432Z,2.08
2023-04-02T06:11:55.526Z,3.08
2023-04-02T06:14:23.814Z,2.65
2023-04-02T06:16:52.164Z,2.97
2023-04-02T06:19:23.696Z,2.33
2023-04-02T06:21:59.503Z,2.75
2023-04-02T06:24:29.192Z,2.17
2023-04-02T06:27:01.733Z,2.33
2023-04-02T06:29:38.150Z,2.10
2023-04-02T06:32:08.353Z,2.40
2023-04-02T06:34:39.617Z,2.30
2023-04-02T06:37:21.404Z,2.08
2023-04-02T06:39:49.686Z,1.83
2023-04-02T06:42:22.788Z,1.15
2023-04-02T06:44:52.178Z,2.13
2023-04-02T06:47:30.092Z,3.17
2023-04-02T06:50:04.033Z,1.90
2023-04-02T06:52:45.094Z,1.85
2023-04-02T06:55:30.457Z,1.25
2023-04-02T06:58:00.189Z,1.33
2023-04-02T07:00:41.892Z,2.03
2023-04-02T07:03:15.926Z,1.27
2023-04-02T07:05:45.935Z,0.98
2023-04-02T07:08:15.697Z,1.48
2023-04-02T07:10:45.625Z,1.50
2023-04-02T07:13:16.390Z,1.23
2023-04-02T07:15:47.736Z,1.80
2023-04-02T07:18:26.601Z,1.43
2023-04-02T07:20:55.597Z,1.38
2023-04-02T07:23:27.399Z,0.75
2023-04-02T07:25:56.801Z,1.52
2023-04-02T07:28:27.409Z,1.63
2023-04-02T07:30:56.401Z,1.67
2023-04-02T07:33:27.238Z,1.80
2023-04-02T07:35:57.910Z,1.58
2023-04-02T07:38:28.531Z,1.90
2023-04-02T07:40:58.540Z,1.70
2023-04-02T07:43:28.617Z,1.58
2023-04-02T07:45:57.165Z,1.65
2023-04-02T07:48:25.660Z,1.83
2023-04-02T07:50:54.767Z,1.77
2023-04-02T07:53:30.776Z,1.85
2023-04-02T07:56:00.239Z,1.60
2023-04-02T07:58:30.882Z,1.48
2023-04-02T08:00:59.842Z,1.73
2023-04-02T08:03:29.499Z,1.35
2023-04-02T08:05:59.291Z,1.52
2023-04-02T08:08:29.217Z,1.63
2023-04-02T08:10:57.885Z,1.60
2023-04-02T08:13:26.362Z,1.70
2023-04-02T08:15:59.441Z,1.55
2023-04-02T08:18:28.147Z,1.92
2023-04-02T08:20:56.984Z,1.85
2023-04-02T08:23:26.059Z,1.42
2023-04-02T08:25:56.376Z,1.80
2023-04-02T08:28:25.211Z,1.50
2023-04-02T08:30:53.525Z,1.52
2023-04-02T08:33:21.625Z,1.88
2023-04-02T08:35:51.647Z,1.92
2023-04-02T08:38:21.973Z,1.38
2023-04-02T08:40:51.503Z,1.55
2023-04-02T08:43:37.708Z,0.85
2023-04-02T08:46:10.830Z,1.65
2023-04-02T08:48:43.079Z,1.58
2023-04-02T08:53:42.196Z,2.00
2023-04-02T08:56:17.772Z,1.83
2023-04-02T08:58:50.010Z,1.70
2023-04-02T09:01:25.261Z,2.08
2023-04-02T09:03:55.619Z,1.50
2023-04-02T09:06:24.159Z,2.10
2023-04-02T09:08:53.265Z,1.60
2023-04-02T09:11:27.456Z,2.00
2023-04-02T09:13:59.100Z,1.73
2023-04-02T09:16:44.115Z,1.30
2023-04-02T09:19:17.944Z,1.33
2023-04-02T09:22:06.106Z,1.08
2023-04-02T09:24:37.665Z,1.67
2023-04-02T09:27:18.595Z,1.17
2023-04-02T09:29:49.629Z,1.70
2023-04-02T09:32:29.115Z,1.20
2023-04-02T09:35:24.693Z,1.60
2023-04-02T09:38:19.940Z,1.70
2023-04-02T09:40:51.441Z,1.13
2023-04-02T09:43:21.270Z,1.40
2023-04-02T09:46:00.565Z,1.10
2023-04-02T09:48:31.524Z,2.08
2023-04-02T09:53:41.141Z,1.50
2023-04-02T09:56:20.173Z,1.50
2023-04-02T09:59:05.112Z,1.55
2023-04-02T10:01:36.891Z,1.30
2023-04-02T10:04:07.708Z,1.30
2023-04-02T10:06:36.290Z,1.23
2023-04-02T10:09:27.200Z,1.30
2023-04-02T10:11:55.850Z,2.03
2023-04-02T10:14:29.229Z,1.58
2023-04-02T10:17:01.281Z,1.45
2023-04-02T10:19:33.973Z,1.58
2023-04-02T10:22:07.421Z,1.67
2023-04-02T10:24:41.711Z,1.45
2023-04-02T10:27:22.876Z,1.10
2023-04-02T10:30:04.009Z,1.40
2023-04-02T10:32:38.703Z,1.42
2023-04-02T10:35:14.380Z,1.38
2023-04-02T10:38:16.036Z,1.90
2023-04-02T10:40:49.956Z,2.20
2023-04-02T10:43:44.393Z,1.83
2023-04-02T10:46:18.759Z,1.75
2023-04-02T10:48:58.474Z,1.40
2023-04-02T10:51:33.481Z,1.20
2023-04-02T10:54:09.016Z,1.30
2023-04-02T10:56:50.084Z,1.27
2023-04-02T10:59:20.890Z,1.30
2023-04-02T11:01:52.311Z,1.48
2023-04-02T11:04:27.601Z,1.73
2023-04-02T11:07:11.098Z,1.58
2023-04-02T11:09:44.060Z,1.42
2023-04-02T11:12:22.271Z,1.20
2023-04-02T11:14:51.970Z,2.65
2023-04-02T11:17:21.083Z,1.23
2023-04-02T11:19:51.542Z,1.52
2023-04-02T11:22:22.850Z,1.35
2023-04-02T11:24:55.085Z,1.52
2023-04-02T11:27:26.809Z,1.30
2023-04-02T11:30:05.848Z,1.50
2023-04-02T11:32:40.485Z,1.42
2023-04-02T11:35:36.695Z,1.23
2023-04-02T11:38:39.427Z,1.20
2023-04-02T11:41:10.855Z,1.42
2023-04-02T11:43:52.909Z,2.23
2023-04-02T11:46:46.244Z,1.63
2023-04-02T11:49:57.414Z,1.70
2023-04-02T11:52:30.101Z,1.95
2023-04-02T11:55:02.156Z,1.27
2023-04-02T11:57:55.788Z,1.02
2023-04-02T12:00:44.085Z,1.25
2023-04-02T12:03:38.886Z,1.67
2023-04-02T12:06:13.602Z,1.77
2023-04-02T12:08:57.038Z,2.42
2023-04-02T12:11:36.308Z,1.88
2023-04-02T12:14:20.567Z,1.60
2023-04-02T12:16:51.437Z,1.50
2023-04-02T12:19:19.817Z,2.00
2023-04-02T12:21:51.265Z,1.77
2023-04-02T12:24:24.982Z,1.40
2023-04-02T12:27:08.552Z,1.33
2023-04-02T12:29:39.381Z,1.38
2023-04-02T12:32:22.840Z,2.20
2023-04-02T12:37:22.272Z,1.65
2023-04-02T12:39:55.703Z,1.43
2023-04-02T12:42:30.912Z,1.60
2023-04-02T12:45:01.034Z,1.98
2023-04-02T12:47:30.452Z,1.30
2023-04-02T12:50:00.976Z,2.35
2023-04-02T12:52:30.601Z,1.45
2023-04-02T12:55:00.306Z,1.30
2023-04-02T12:57:40.852Z,1.48
2023-04-02T13:00:31.613Z,1.35
2023-04-02T13:03:02.127Z,1.30
2023-04-02T13:05:36.214Z,1.45
2023-04-02T13:08:06.118Z,1.17
2023-04-02T13:10:34.851Z,1.65
2023-04-02T13:13:04.421Z,1.20
2023-04-02T13:15:37.446Z,1.48
2023-04-02T13:18:09.330Z,1.58
2023-04-02T13:20:41.153Z,1.45
2023-04-02T13:23:33.705Z,1.50
2023-04-02T13:26:03.081Z,1.35
2023-04-02T13:28:32.465Z,1.50
2023-04-02T13:31:04.080Z,1.10
2023-04-02T13:33:35.214Z,1.50
2023-04-02T13:36:03.613Z,1.30
2023-04-02T13:38:31.769Z,1.00
2023-04-02T13:41:01.392Z,1.00
2023-04-02T13:43:29.539Z,1.85
2023-04-02T13:45:59.414Z,0.98
2023-04-02T13:48:36.457Z,1.55
2023-04-02T13:51:05.774Z,1.00
2023-04-02T13:53:34.748Z,0.80
2023-04-02T13:56:05.423Z,1.35
2023-04-02T13:58:34.958Z,1.08
2023-04-02T14:01:05.948Z,1.00
2023-04-02T14:03:35.768Z,1.20
2023-04-02T14:06:08.492Z,1.30
2023-04-02T14:08:49.389Z,1.30
2023-04-02T14:11:32.629Z,0.98
2023-04-02T14:14:20.418Z,2.08
2023-04-02T14:16:59.107Z,1.70
2023-04-02T14:19:41.729Z,1.40
2023-04-02T14:22:17.624Z,1.13
2023-04-02T14:24:49.335Z,0.77
2023-04-02T14:27:25.493Z,0.77
2023-04-02T14:29:59.780Z,1.10
2023-04-02T14:32:37.262Z,2.15
2023-04-02T14:35:16.265Z,0.98
2023-04-02T14:37:54.065Z,1.20
2023-04-02T14:40:27.189Z,1.50
2023-04-02T14:43:05.850Z,1.05
2023-04-02T14:45:49.533Z,1.15
2023-04-02T14:48:27.805Z,1.20
2023-04-02T14:51:01.960Z,1.10
2023-04-02T14:53:37.391Z,1.20
2023-04-02T14:56:08.309Z,1.02
2023-04-02T14:58:40.562Z,1.20
2023-04-02T15:03:43.935Z,1.00
2023-04-02T15:06:16.480Z,1.25
2023-04-02T15:09:02.187Z,1.67
2023-04-02T15:11:39.770Z,0.90
2023-04-02T15:14:13.836Z,1.10
2023-04-02T15:16:44.131Z,1.25
2023-04-02T15:19:17.762Z,1.17
2023-04-02T15:22:25.990Z,1.20
2023-04-02T15:25:05.159Z,1.63
2023-04-02T15:27:46.997Z,1.10
2023-04-02T15:30:21.913Z,1.20
2023-04-02T15:32:50.650Z,1.13
2023-04-02T15:35:35.073Z,1.80
2023-04-02T15:38:11.953Z,1.50
2023-04-02T15:40:48.225Z,1.52
2023-04-02T15:43:21.171Z,2.65
2023-04-02T15:45:52.834Z,1.58
2023-04-02T15:48:39.907Z,1.40
2023-04-02T15:51:32.814Z,1.55
2023-04-02T15:54:06.942Z,1.48
2023-04-02T15:56:41.035Z,1.33
2023-04-02T15:59:27.934Z,1.02
2023-04-02T16:02:02.075Z,1.13
2023-04-02T16:04:56.439Z,1.20
2023-04-02T16:07:55.617Z,0.95
2023-04-02T16:10:42.552Z,1.10
2023-04-02T16:13:19.423Z,1.70
2023-04-02T16:15:52.689Z,0.80
2023-04-02T16:18:31.795Z,1.52
2023-04-02T16:21:02.667Z,1.42
2023-04-02T16:23:35.090Z,1.30
2023-04-02T16:26:13.085Z,0.98
2023-04-02T16:28:46.686Z,0.93
2023-04-02T16:31:17.942Z,1.30
2023-04-02T16:33:55.194Z,1.05
2023-04-02T16:36:30.161Z,1.70
2023-04-02T16:39:00.534Z,1.38
2023-04-02T16:41:40.673Z,1.08
2023-04-02T16:44:17.057Z,1.17
2023-04-02T16:46:53.019Z,1.17
2023-04-02T16:49:29.810Z,1.48
2023-04-02T16:52:07.996Z,2.35
2023-04-02T16:54:42.581Z,1.65
2023-04-02T16:57:35.511Z,1.75
2023-04-02T17:00:11.644Z,1.08
2023-04-02T17:02:50.052Z,1.40
2023-04-02T17:05:28.388Z,1.85
2023-04-02T17:08:04.583Z,1.60
2023-04-02T17:10:34.801Z,1.23
2023-04-02T17:13:19.329Z,1.73
2023-04-02T17:15:54.314Z,2.03
2023-04-02T17:18:24.768Z,1.15
2023-04-02T17:20:53.832Z,1.30
2023-04-02T17:23:23.612Z,1.75
2023-04-02T17:25:56.489Z,2.50
2023-04-02T17:28:36.908Z,1.30
2023-04-02T17:31:08.114Z,1.65
2023-04-02T17:33:36.966Z,1.63
2023-04-02T17:36:26.820Z,1.52
2023-04-02T17:39:04.817Z,1.20
2023-04-02T17:41:39.312Z,1.15
2023-04-02T17:44:27.299Z,1.58
2023-04-02T17:47:06.232Z,1.50
2023-04-02T17:49:38.785Z,1.35
2023-04-02T17:52:12.101Z,1.63
2023-04-02T17:54:44.710Z,1.25
2023-04-02T17:57:37.484Z,1.35
2023-04-02T18:00:21.540Z,1.30
2023-04-02T18:03:00.565Z,1.13
2023-04-02T18:05:31.895Z,1.48
2023-04-02T18:08:12.525Z,1.40
2023-04-02T18:10:47.788Z,1.63
2023-04-02T18:13:23.363Z,1.42
2023-04-02T18:16:00.774Z,1.30
2023-04-02T18:18:40.666Z,1.48
2023-04-02T18:21:12.905Z,1.50
2023-04-02T18:26:16.179Z,1.33
2023-04-02T18:28:55.109Z,1.40
2023-04-02T18:31:39.360Z,1.45
2023-04-02T18:34:40.954Z,1.88
2023-04-02T18:37:31.243Z,2.33
2023-04-02T18:40:10.134Z,1.50
2023-04-02T18:42:48.910Z,1.35
2023-04-02T18:45:20.611Z,2.10
2023-04-02T18:47:59.414Z,1.23
2023-04-02T18:50:31.570Z,1.48
2023-04-02T18:53:03.860Z,2.25
2023-04-02T18:58:03.720Z,1.40
2023-04-02T19:00:36.998Z,1.73
2023-04-02T19:03:16.552Z,1.65
2023-04-02T19:05:50.762Z,1.30
2023-04-02T19:08:21.793Z,1.48
2023-04-02T19:10:53.959Z,1.33
2023-04-02T19:13:26.431Z,1.65
2023-04-02T19:16:11.635Z,1.45
2023-04-02T19:18:51.758Z,1.35
2023-04-02T19:21:27.007Z,1.63
2023-04-02T19:24:15.775Z,1.95
2023-04-02T19:26:49.320Z,1.35
2023-04-02T19:29:26.148Z,2.13
2023-04-02T19:31:56.468Z,2.05
2023-04-02T19:34:31.274Z,1.88
2023-04-02T19:37:05.143Z,1.67
2023-04-02T19:39:54.965Z,1.83
2023-04-02T19:42:38.063Z,1.83
2023-04-02T19:45:07.575Z,1.85
2023-04-02T19:47:35.905Z,1.98
2023-04-02T19:50:05.969Z,1.50
2023-04-02T19:52:33.955Z,1.25
2023-04-02T19:55:02.077Z,2.10
2023-04-02T19:57:32.797Z,2.90
2023-04-02T20:00:01.096Z,2.47
2023-04-02T20:02:29.169Z,1.80
2023-04-02T20:04:57.552Z,2.58
2023-04-02T20:07:27.012Z,2.08
2023-04-02T20:09:55.188Z,2.53
2023-04-02T20:12:23.477Z,2.58
2023-04-02T20:14:52.940Z,1.70
2023-04-02T20:17:21.443Z,1.70
2023-04-02T20:19:49.855Z,1.52
2023-04-02T20:22:19.329Z,2.00
2023-04-02T20:24:48.719Z,1.45
2023-04-02T20:27:16.822Z,1.67
2023-04-02T20:29:44.853Z,2.03
2023-04-02T20:32:13.371Z,1.90
2023-04-02T20:34:41.703Z,1.80
2023-04-02T20:37:12.488Z,1.80
2023-04-02T20:39:41.323Z,2.10
2023-04-02T20:42:11.637Z,1.48
2023-04-02T20:44:39.887Z,1.58
2023-04-02T20:47:08.477Z,1.35
2023-04-02T20:49:36.546Z,1.80
2023-04-02T20:52:04.983Z,1.60
2023-04-02T20:54:35.653Z,1.63
2023-04-02T20:57:04.122Z,1.40
2023-04-02T20:59:35.023Z,3.05
2023-04-02T21:02:04.297Z,1.95
2023-04-02T21:04:33.534Z,1.40
2023-04-02T21:07:01.660Z,1.98
2023-04-02T21:09:30.234Z,1.75
2023-04-02T21:11:59.043Z,2.22
2023-04-02T21:14:27.567Z,1.40
2023-04-02T21:16:57.032Z,1.27
2023-04-02T21:19:25.212Z,1.77
2023-04-02T21:21:55.293Z,2.22
2023-04-02T21:24:23.335Z,1.55
2023-04-02T21:26:51.906Z,1.42
2023-04-02T21:29:20.766Z,1.35
2023-04-02T21:31:49.160Z,1.50
2023-04-02T21:34:21.698Z,1.70
2023-04-02T21:36:50.581Z,2.28
2023-04-02T21:39:21.137Z,1.10
2023-04-02T21:41:53.169Z,0.98
2023-04-02T21:44:23.228Z,1.75
2023-04-02T21:46:54.137Z,1.70
2023-04-02T21:49:25.588Z,1.38
2023-04-02T21:51:55.966Z,1.97
2023-04-02T21:54:24.462Z,1.35
2023-04-02T21:56:52.752Z,1.52
2023-04-02T21:59:21.940Z,1.63
2023-04-02T22:01:52.105Z,1.40
2023-04-02T22:04:21.849Z,1.67
2023-04-02T22:06:52.945Z,1.60
2023-04-02T22:09:24.028Z,1.60
2023-04-02T22:11:54.721Z,2.00
2023-04-02T22:14:23.538Z,2.00
2023-04-02T22:16:51.906Z,1.63
2023-04-02T22:19:20.624Z,1.38
2023-04-02T22:21:48.783Z,1.85
2023-04-02T22:24:22.011Z,1.90
2023-04-02T22:26:50.872Z,2.78
2023-04-02T22:29:19.566Z,2.17
2023-04-02T22:31:49.150Z,1.40
2023-04-02T22:34:17.237Z,2.28
2023-04-02T22:36:45.845Z,1.65
2023-04-02T22:39:15.395Z,2.03
2023-04-02T22:41:44.834Z,1.60
2023-04-02T22:44:15.181Z,1.63
2023-04-02T22:46:45.109Z,1.90
2023-04-02T22:49:18.945Z,1.60
2023-04-02T22:51:48.516Z,1.77
2023-04-02T22:54:18.489Z,1.30
2023-04-02T22:56:47.950Z,1.58
2023-04-02T22:59:16.234Z,1.90
2023-04-02T23:01:44.431Z,2.10
2023-04-02T23:04:12.879Z,1.50
2023-04-02T23:06:40.873Z,1.55
2023-04-02T23:09:09.050Z,1.95
2023-04-02T23:11:38.337Z,2.03
2023-04-02T23:14:07.833Z,1.92
2023-04-02T23:16:36.250Z,2.38
2023-04-02T23:19:04.571Z,2.47
2023-04-02T23:21:33.181Z,2.08
2023-04-02T23:24:01.395Z,1.35
2023-04-02T23:26:31.519Z,1.63
2023-04-02T23:29:00.941Z,2.17
2023-04-02T23:31:33.105Z,2.00
2023-04-02T23:36:31.103Z,1.20
2023-04-02T23:39:01.575Z,1.75
2023-04-02T23:41:30.553Z,2.00
2023-04-02T23:43:59.460Z,1.33
2023-04-02T23:46:30.010Z,1.85
2023-04-02T23:48:58.622Z,1.95
2023-04-02T23:51:27.362Z,1.75
2023-04-02T23:53:56.322Z,2.50
2023-04-02T23:56:26.001Z,2.15
2023-04-02T23:58:54.279Z,1.65
